sensor_id;sensor_type;location;lat;lon;timestamp;temperature;humidity
51011;DHT22;37038;50.182;8.624;2023-04-10T00:02:08;6.80;99.90
51011;DHT22;37038;50.182;8.624;2023-04-10T00:04:56;6.80;99.90
51011;DHT22;37038;50.182;8.624;2023-04-10T00:07:43;6.70;99.90
51011;DHT22;37038;50.182;8.624;2023-04-10T00:10:31;6.40;99.90
51011;DHT22;37038;50.182;8.624;2023-04-10T00:13:19;6.20;99.90
51011;DHT22;37038;50.182;8.624;2023-04-10T00:16:07;6.10;99.90
51011;DHT22;37038;50.182;8.624;2023-04-10T00:18:54;6.10;99.90
51011;DHT22;37038;50.182;8.624;2023-04-10T00:21:42;6.10;99.90
51011;DHT22;37038;50.182;8.624;2023-04-10T00:24:30;6.20;99.90
51011;DHT22;37038;50.182;8.624;2023-04-10T00:27:17;6.10;99.90
51011;DHT22;37038;50.182;8.624;2023-04-10T00:30:05;6.00;99.90
51011;DHT22;37038;50.182;8.624;2023-04-10T00:32:53;5.90;99.90
51011;DHT22;37038;50.182;8.624;2023-04-10T00:35:41;5.80;99.90
51011;DHT22;37038;50.182;8.624;2023-04-10T00:38:28;5.50;99.90
51011;DHT22;37038;50.182;8.624;2023-04-10T00:41:16;5.60;99.90
51011;DHT22;37038;50.182;8.624;2023-04-10T00:44:03;5.60;99.90
51011;DHT22;37038;50.182;8.624;2023-04-10T00:46:51;5.60;99.90
51011;DHT22;37038;50.182;8.624;2023-04-10T00:49:39;5.60;99.90
51011;DHT22;37038;50.182;8.624;2023-04-10T00:52:27;5.80;99.90
51011;DHT22;37038;50.182;8.624;2023-04-10T00:55:15;5.70;99.90
51011;DHT22;37038;50.182;8.624;2023-04-10T00:58:02;5.70;99.90
51011;DHT22;37038;50.182;8.624;2023-04-10T01:00:50;5.70;99.90
51011;DHT22;37038;50.182;8.624;2023-04-10T01:03:41;5.70;99.90
51011;DHT22;37038;50.182;8.624;2023-04-10T01:16:03;5.80;99.90
51011;DHT22;37038;50.182;8.624;2023-04-10T01:18:57;5.90;99.90
51011;DHT22;37038;50.182;8.624;2023-04-10T01:21:46;5.80;99.90
51011;DHT22;37038;50.182;8.624;2023-04-10T01:24:52;5.40;99.90
51011;DHT22;37038;50.182;8.624;2023-04-10T01:28:06;5.50;99.90
51011;DHT22;37038;50.182;8.624;2023-04-10T01:31:00;5.50;99.90
51011;DHT22;37038;50.182;8.624;2023-04-10T01:33:51;5.40;99.90
51011;DHT22;37038;50.182;8.624;2023-04-10T01:36:48;5.50;99.90
51011;DHT22;37038;50.182;8.624;2023-04-10T01:39:38;5.40;99.90
51011;DHT22;37038;50.182;8.624;2023-04-10T01:42:33;5.40;99.90
51011;DHT22;37038;50.182;8.624;2023-04-10T01:45:24;5.10;99.90
51011;DHT22;37038;50.182;8.624;2023-04-10T01:48:13;5.40;99.90
51011;DHT22;37038;50.182;8.624;2023-04-10T01:51:06;5.50;99.90
51011;DHT22;37038;50.182;8.624;2023-04-10T01:53:54;5.50;99.90
51011;DHT22;37038;50.182;8.624;2023-04-10T01:56:43;5.40;99.90
51011;DHT22;37038;50.182;8.624;2023-04-10T01:59:31;5.20;99.90
51011;DHT22;37038;50.182;8.624;2023-04-10T02:02:19;5.30;99.90
51011;DHT22;37038;50.182;8.624;2023-04-10T02:05:07;5.40;99.90
51011;DHT22;37038;50.182;8.624;2023-04-10T02:08:04;5.10;99.90
51011;DHT22;37038;50.182;8.624;2023-04-10T02:13:56;5.10;99.90
51011;DHT22;37038;50.182;8.624;2023-04-10T02:16:46;5.00;99.90
51011;DHT22;37038;50.182;8.624;2023-04-10T02:19:36;5.00;99.90
51011;DHT22;37038;50.182;8.624;2023-04-10T02:22:24;5.00;99.90
51011;DHT22;37038;50.182;8.624;2023-04-10T02:25:13;5.00;99.90
51011;DHT22;37038;50.182;8.624;2023-04-10T02:28:05;5.00;99.90
51011;DHT22;37038;50.182;8.624;2023-04-10T02:30:52;4.90;99.90
51011;DHT22;37038;50.182;8.624;2023-04-10T02:33:40;5.00;99.90
51011;DHT22;37038;50.182;8.624;2023-04-10T02:36:27;4.90;99.90
51011;DHT22;37038;50.182;8.624;2023-04-10T02:39:16;4.90;99.90
51011;DHT22;37038;50.182;8.624;2023-04-10T02:42:03;4.80;99.90
51011;DHT22;37038;50.182;8.624;2023-04-10T02:44:51;4.70;99.90
51011;DHT22;37038;50.182;8.624;2023-04-10T02:47:38;4.70;99.90
51011;DHT22;37038;50.182;8.624;2023-04-10T02:50:26;4.70;99.90
51011;DHT22;37038;50.182;8.624;2023-04-10T02:53:15;4.60;99.90
51011;DHT22;37038;50.182;8.624;2023-04-10T02:56:04;4.40;99.90
51011;DHT22;37038;50.182;8.624;2023-04-10T02:58:53;4.60;99.90
51011;DHT22;37038;50.182;8.624;2023-04-10T03:01:41;4.60;99.90
51011;DHT22;37038;50.182;8.624;2023-04-10T03:04:31;4.70;99.90
51011;DHT22;37038;50.182;8.624;2023-04-10T03:07:18;4.70;99.90
51011;DHT22;37038;50.182;8.624;2023-04-10T03:10:07;4.80;99.90
51011;DHT22;37038;50.182;8.624;2023-04-10T03:12:54;4.70;99.90
51011;DHT22;37038;50.182;8.624;2023-04-10T03:15:42;4.70;99.90
51011;DHT22;37038;50.182;8.624;2023-04-10T03:18:29;4.70;99.90
51011;DHT22;37038;50.182;8.624;2023-04-10T03:21:18;4.70;99.90
51011;DHT22;37038;50.182;8.624;2023-04-10T03:24:05;4.70;99.90
51011;DHT22;37038;50.182;8.624;2023-04-10T03:26:53;4.70;99.90
51011;DHT22;37038;50.182;8.624;2023-04-10T03:29:41;4.90;99.90
51011;DHT22;37038;50.182;8.624;2023-04-10T03:32:28;4.80;99.90
51011;DHT22;37038;50.182;8.624;2023-04-10T03:35:17;4.70;99.90
51011;DHT22;37038;50.182;8.624;2023-04-10T03:38:05;4.50;99.90
51011;DHT22;37038;50.182;8.624;2023-04-10T03:40:52;4.50;99.90
51011;DHT22;37038;50.182;8.624;2023-04-10T03:43:40;4.70;99.90
51011;DHT22;37038;50.182;8.624;2023-04-10T03:46:27;4.60;99.90
51011;DHT22;37038;50.182;8.624;2023-04-10T03:49:15;4.50;99.90
51011;DHT22;37038;50.182;8.624;2023-04-10T03:52:02;4.70;99.90
51011;DHT22;37038;50.182;8.624;2023-04-10T03:54:50;4.70;99.90
51011;DHT22;37038;50.182;8.624;2023-04-10T03:57:38;4.70;99.90
51011;DHT22;37038;50.182;8.624;2023-04-10T04:00:26;4.70;99.90
51011;DHT22;37038;50.182;8.624;2023-04-10T04:03:14;4.80;99.90
51011;DHT22;37038;50.182;8.624;2023-04-10T04:06:02;4.80;99.90
51011;DHT22;37038;50.182;8.624;2023-04-10T04:08:50;4.80;99.90
51011;DHT22;37038;50.182;8.624;2023-04-10T04:11:37;4.80;99.90
51011;DHT22;37038;50.182;8.624;2023-04-10T04:14:25;4.80;99.90
51011;DHT22;37038;50.182;8.624;2023-04-10T04:17:12;4.90;99.90
51011;DHT22;37038;50.182;8.624;2023-04-10T04:20:00;4.80;99.90
51011;DHT22;37038;50.182;8.624;2023-04-10T04:22:47;4.80;99.90
51011;DHT22;37038;50.182;8.624;2023-04-10T04:25:35;4.60;99.90
51011;DHT22;37038;50.182;8.624;2023-04-10T04:28:22;4.60;99.90
51011;DHT22;37038;50.182;8.624;2023-04-10T04:31:10;4.60;99.90
51011;DHT22;37038;50.182;8.624;2023-04-10T04:33:58;4.60;99.90
51011;DHT22;37038;50.182;8.624;2023-04-10T04:36:46;4.70;99.90
51011;DHT22;37038;50.182;8.624;2023-04-10T04:39:33;4.60;99.90
51011;DHT22;37038;50.182;8.624;2023-04-10T04:42:21;4.70;99.90
51011;DHT22;37038;50.182;8.624;2023-04-10T04:45:08;4.60;99.90
51011;DHT22;37038;50.182;8.624;2023-04-10T04:47:56;4.70;99.90
51011;DHT22;37038;50.182;8.624;2023-04-10T04:50:44;4.60;99.90
51011;DHT22;37038;50.182;8.624;2023-04-10T04:53:32;4.60;99.90
51011;DHT22;37038;50.182;8.624;2023-04-10T04:56:19;4.70;99.90
51011;DHT22;37038;50.182;8.624;2023-04-10T04:59:07;4.60;99.90
51011;DHT22;37038;50.182;8.624;2023-04-10T05:01:54;4.80;99.90
51011;DHT22;37038;50.182;8.624;2023-04-10T05:04:42;5.10;99.90
51011;DHT22;37038;50.182;8.624;2023-04-10T05:07:29;5.90;99.90
51011;DHT22;37038;50.182;8.624;2023-04-10T05:10:17;6.40;99.90
51011;DHT22;37038;50.182;8.624;2023-04-10T05:13:05;6.70;99.90
51011;DHT22;37038;50.182;8.624;2023-04-10T05:15:53;6.80;99.90
51011;DHT22;37038;50.182;8.624;2023-04-10T05:18:40;6.50;99.90
51011;DHT22;37038;50.182;8.624;2023-04-10T05:21:28;6.20;99.90
51011;DHT22;37038;50.182;8.624;2023-04-10T05:24:15;6.10;99.90
51011;DHT22;37038;50.182;8.624;2023-04-10T05:27:03;6.40;99.90
51011;DHT22;37038;50.182;8.624;2023-04-10T05:29:50;6.70;99.90
51011;DHT22;37038;50.182;8.624;2023-04-10T05:32:38;6.40;99.90
51011;DHT22;37038;50.182;8.624;2023-04-10T05:35:25;6.90;99.90
51011;DHT22;37038;50.182;8.624;2023-04-10T05:38:13;6.70;99.90
51011;DHT22;37038;50.182;8.624;2023-04-10T05:41:00;7.10;99.90
51011;DHT22;37038;50.182;8.624;2023-04-10T05:43:48;7.30;99.90
51011;DHT22;37038;50.182;8.624;2023-04-10T05:46:36;7.90;99.90
51011;DHT22;37038;50.182;8.624;2023-04-10T05:49:24;8.30;99.90
51011;DHT22;37038;50.182;8.624;2023-04-10T05:52:11;9.30;99.90
51011;DHT22;37038;50.182;8.624;2023-04-10T05:54:59;9.50;99.90
51011;DHT22;37038;50.182;8.624;2023-04-10T05:57:47;9.70;99.90
51011;DHT22;37038;50.182;8.624;2023-04-10T06:00:34;9.10;99.90
51011;DHT22;37038;50.182;8.624;2023-04-10T06:03:23;7.90;99.90
51011;DHT22;37038;50.182;8.624;2023-04-10T06:06:11;7.90;99.90
51011;DHT22;37038;50.182;8.624;2023-04-10T06:08:58;8.10;99.90
51011;DHT22;37038;50.182;8.624;2023-04-10T06:11:46;8.70;99.90
51011;DHT22;37038;50.182;8.624;2023-04-10T06:14:34;9.60;99.90
51011;DHT22;37038;50.182;8.624;2023-04-10T06:17:22;10.10;99.90
51011;DHT22;37038;50.182;8.624;2023-04-10T06:20:12;11.10;99.90
51011;DHT22;37038;50.182;8.624;2023-04-10T06:22:59;12.20;99.90
51011;DHT22;37038;50.182;8.624;2023-04-10T06:25:47;13.00;99.90
51011;DHT22;37038;50.182;8.624;2023-04-10T06:28:34;13.10;99.90
51011;DHT22;37038;50.182;8.624;2023-04-10T06:31:23;13.50;99.90
51011;DHT22;37038;50.182;8.624;2023-04-10T06:34:10;13.70;99.90
51011;DHT22;37038;50.182;8.624;2023-04-10T06:36:58;13.40;99.90
51011;DHT22;37038;50.182;8.624;2023-04-10T06:39:45;13.40;99.90
51011;DHT22;37038;50.182;8.624;2023-04-10T06:42:34;13.70;99.60
51011;DHT22;37038;50.182;8.624;2023-04-10T06:45:21;12.40;99.90
51011;DHT22;37038;50.182;8.624;2023-04-10T06:48:09;12.20;99.20
51011;DHT22;37038;50.182;8.624;2023-04-10T06:50:57;11.60;99.90
51011;DHT22;37038;50.182;8.624;2023-04-10T06:53:46;12.40;99.90
51011;DHT22;37038;50.182;8.624;2023-04-10T06:56:34;12.50;99.90
51011;DHT22;37038;50.182;8.624;2023-04-10T06:59:21;12.10;99.90
51011;DHT22;37038;50.182;8.624;2023-04-10T07:02:09;13.70;98.50
51011;DHT22;37038;50.182;8.624;2023-04-10T07:04:56;14.80;96.80
51011;DHT22;37038;50.182;8.624;2023-04-10T07:07:44;16.20;92.40
51011;DHT22;37038;50.182;8.624;2023-04-10T07:10:33;16.40;89.80
51011;DHT22;37038;50.182;8.624;2023-04-10T07:13:21;16.50;85.20
51011;DHT22;37038;50.182;8.624;2023-04-10T07:16:09;17.50;80.20
51011;DHT22;37038;50.182;8.624;2023-04-10T07:18:56;16.80;75.90
51011;DHT22;37038;50.182;8.624;2023-04-10T07:21:44;17.10;75.30
51011;DHT22;37038;50.182;8.624;2023-04-10T07:24:31;17.30;71.30
51011;DHT22;37038;50.182;8.624;2023-04-10T07:27:19;17.90;68.50
51011;DHT22;37038;50.182;8.624;2023-04-10T07:30:07;19.00;62.00
51011;DHT22;37038;50.182;8.624;2023-04-10T07:32:55;19.60;57.00
51011;DHT22;37038;50.182;8.624;2023-04-10T07:35:42;18.30;55.20
51011;DHT22;37038;50.182;8.624;2023-04-10T07:38:31;19.50;54.30
51011;DHT22;37038;50.182;8.624;2023-04-10T07:41:19;21.00;48.70
51011;DHT22;37038;50.182;8.624;2023-04-10T07:44:06;21.50;44.30
51011;DHT22;37038;50.182;8.624;2023-04-10T07:46:54;20.60;43.80
51011;DHT22;37038;50.182;8.624;2023-04-10T07:49:42;20.90;43.20
51011;DHT22;37038;50.182;8.624;2023-04-10T07:52:29;19.80;40.70
51011;DHT22;37038;50.182;8.624;2023-04-10T07:55:17;17.00;42.20
51011;DHT22;37038;50.182;8.624;2023-04-10T07:58:05;15.70;45.50
51011;DHT22;37038;50.182;8.624;2023-04-10T08:00:53;17.70;46.50
51011;DHT22;37038;50.182;8.624;2023-04-10T08:03:42;17.80;45.50
51011;DHT22;37038;50.182;8.624;2023-04-10T08:06:30;18.70;43.60
51011;DHT22;37038;50.182;8.624;2023-04-10T08:09:18;15.90;43.50
51011;DHT22;37038;50.182;8.624;2023-04-10T08:12:06;15.00;46.80
51011;DHT22;37038;50.182;8.624;2023-04-10T08:14:53;15.60;49.60
51011;DHT22;37038;50.182;8.624;2023-04-10T08:17:41;17.30;45.00
51011;DHT22;37038;50.182;8.624;2023-04-10T08:20:29;17.00;45.80
51011;DHT22;37038;50.182;8.624;2023-04-10T08:23:17;16.10;46.40
51011;DHT22;37038;50.182;8.624;2023-04-10T08:26:07;16.90;48.00
51011;DHT22;37038;50.182;8.624;2023-04-10T08:28:57;18.80;42.50
51011;DHT22;37038;50.182;8.624;2023-04-10T08:31:46;17.10;42.00
51011;DHT22;37038;50.182;8.624;2023-04-10T08:34:33;16.90;45.00
51011;DHT22;37038;50.182;8.624;2023-04-10T08:37:21;17.60;44.50
51011;DHT22;37038;50.182;8.624;2023-04-10T08:40:09;18.00;44.00
51011;DHT22;37038;50.182;8.624;2023-04-10T08:42:57;18.60;41.30
51011;DHT22;37038;50.182;8.624;2023-04-10T08:45:44;18.40;40.10
51011;DHT22;37038;50.182;8.624;2023-04-10T08:51:58;17.60;41.30
51011;DHT22;37038;50.182;8.624;2023-04-10T08:54:47;18.10;40.30
51011;DHT22;37038;50.182;8.624;2023-04-10T08:57:37;19.10;38.30
51011;DHT22;37038;50.182;8.624;2023-04-10T09:00:27;19.10;36.70
51011;DHT22;37038;50.182;8.624;2023-04-10T09:03:15;17.90;35.60
51011;DHT22;37038;50.182;8.624;2023-04-10T09:06:04;16.30;41.30
51011;DHT22;37038;50.182;8.624;2023-04-10T09:08:51;17.40;38.20
51011;DHT22;37038;50.182;8.624;2023-04-10T09:14:40;19.40;34.90
51011;DHT22;37038;50.182;8.624;2023-04-10T09:17:27;18.80;32.50
51011;DHT22;37038;50.182;8.624;2023-04-10T09:20:25;18.40;34.70
51011;DHT22;37038;50.182;8.624;2023-04-10T09:23:20;18.50;33.80
51011;DHT22;37038;50.182;8.624;2023-04-10T09:26:30;17.10;33.60
51011;DHT22;37038;50.182;8.624;2023-04-10T09:29:18;17.20;35.20
51011;DHT22;37038;50.182;8.624;2023-04-10T09:32:06;17.90;34.70
51011;DHT22;37038;50.182;8.624;2023-04-10T09:34:54;19.20;30.50
51011;DHT22;37038;50.182;8.624;2023-04-10T09:37:44;18.20;32.00
51011;DHT22;37038;50.182;8.624;2023-04-10T09:40:32;15.70;35.40
51011;DHT22;37038;50.182;8.624;2023-04-10T09:43:25;15.50;37.60
51011;DHT22;37038;50.182;8.624;2023-04-10T09:46:25;14.80;37.70
51011;DHT22;37038;50.182;8.624;2023-04-10T09:49:14;15.40;39.40
51011;DHT22;37038;50.182;8.624;2023-04-10T09:52:17;16.20;36.60
51011;DHT22;37038;50.182;8.624;2023-04-10T09:55:05;17.70;34.70
51011;DHT22;37038;50.182;8.624;2023-04-10T09:57:56;18.80;32.00
51011;DHT22;37038;50.182;8.624;2023-04-10T10:00:47;17.50;33.70
51011;DHT22;37038;50.182;8.624;2023-04-10T10:03:35;19.50;33.00
51011;DHT22;37038;50.182;8.624;2023-04-10T10:06:22;19.30;31.80
51011;DHT22;37038;50.182;8.624;2023-04-10T10:09:10;18.80;32.10
51011;DHT22;37038;50.182;8.624;2023-04-10T10:11:58;18.30;29.70
51011;DHT22;37038;50.182;8.624;2023-04-10T10:20:54;19.30;29.60
51011;DHT22;37038;50.182;8.624;2023-04-10T10:23:42;19.40;27.10
51011;DHT22;37038;50.182;8.624;2023-04-10T10:26:31;19.00;29.10
51011;DHT22;37038;50.182;8.624;2023-04-10T10:29:21;19.20;28.20
51011;DHT22;37038;50.182;8.624;2023-04-10T10:32:10;18.10;27.60
51011;DHT22;37038;50.182;8.624;2023-04-10T10:34:59;20.10;27.50
51011;DHT22;37038;50.182;8.624;2023-04-10T10:37:48;21.30;24.00
51011;DHT22;37038;50.182;8.624;2023-04-10T10:40:50;21.50;24.80
51011;DHT22;37038;50.182;8.624;2023-04-10T10:43:52;22.90;21.70
51011;DHT22;37038;50.182;8.624;2023-04-10T10:47:02;22.30;21.50
51011;DHT22;37038;50.182;8.624;2023-04-10T10:49:56;20.60;22.40
51011;DHT22;37038;50.182;8.624;2023-04-10T10:55:36;17.80;26.20
51011;DHT22;37038;50.182;8.624;2023-04-10T10:58:59;20.70;23.80
51011;DHT22;37038;50.182;8.624;2023-04-10T11:02:12;17.30;27.00
51011;DHT22;37038;50.182;8.624;2023-04-10T11:05:02;18.80;25.50
51011;DHT22;37038;50.182;8.624;2023-04-10T11:11:00;20.70;23.20
51011;DHT22;37038;50.182;8.624;2023-04-10T11:16:40;21.40;22.30
51011;DHT22;37038;50.182;8.624;2023-04-10T11:19:28;18.30;23.60
51011;DHT22;37038;50.182;8.624;2023-04-10T11:22:15;19.10;24.90
51011;DHT22;37038;50.182;8.624;2023-04-10T11:25:03;20.40;22.80
51011;DHT22;37038;50.182;8.624;2023-04-10T11:27:56;21.00;21.90
51011;DHT22;37038;50.182;8.624;2023-04-10T11:30:44;21.10;21.10
51011;DHT22;37038;50.182;8.624;2023-04-10T11:33:31;19.60;22.60
51011;DHT22;37038;50.182;8.624;2023-04-10T11:36:19;18.10;21.80
51011;DHT22;37038;50.182;8.624;2023-04-10T11:39:07;18.60;22.80
51011;DHT22;37038;50.182;8.624;2023-04-10T11:41:55;18.50;22.40
51011;DHT22;37038;50.182;8.624;2023-04-10T11:44:44;19.00;23.50
51011;DHT22;37038;50.182;8.624;2023-04-10T11:47:34;20.00;22.70
51011;DHT22;37038;50.182;8.624;2023-04-10T11:50:22;19.30;22.90
51011;DHT22;37038;50.182;8.624;2023-04-10T11:53:18;19.40;22.60
51011;DHT22;37038;50.182;8.624;2023-04-10T11:56:17;18.40;23.20
51011;DHT22;37038;50.182;8.624;2023-04-10T11:59:06;18.30;23.00
51011;DHT22;37038;50.182;8.624;2023-04-10T12:02:22;19.70;22.40
51011;DHT22;37038;50.182;8.624;2023-04-10T12:05:09;20.00;22.80
51011;DHT22;37038;50.182;8.624;2023-04-10T12:07:58;19.30;21.80
51011;DHT22;37038;50.182;8.624;2023-04-10T12:10:46;19.20;20.90
51011;DHT22;37038;50.182;8.624;2023-04-10T12:13:33;18.20;21.70
51011;DHT22;37038;50.182;8.624;2023-04-10T12:16:22;18.30;21.80
51011;DHT22;37038;50.182;8.624;2023-04-10T12:19:10;18.30;20.50
51011;DHT22;37038;50.182;8.624;2023-04-10T12:21:59;18.80;20.20
51011;DHT22;37038;50.182;8.624;2023-04-10T12:24:48;18.00;20.90
51011;DHT22;37038;50.182;8.624;2023-04-10T12:27:37;18.50;21.40
51011;DHT22;37038;50.182;8.624;2023-04-10T12:30:24;18.60;19.40
51011;DHT22;37038;50.182;8.624;2023-04-10T12:33:12;18.80;19.90
51011;DHT22;37038;50.182;8.624;2023-04-10T12:36:00;19.00;19.00
51011;DHT22;37038;50.182;8.624;2023-04-10T12:38:48;19.80;17.00
51011;DHT22;37038;50.182;8.624;2023-04-10T12:41:36;20.20;17.10
51011;DHT22;37038;50.182;8.624;2023-04-10T12:44:26;19.60;15.20
51011;DHT22;37038;50.182;8.624;2023-04-10T12:47:14;20.60;11.80
51011;DHT22;37038;50.182;8.624;2023-04-10T12:53:03;19.40;11.60
51011;DHT22;37038;50.182;8.624;2023-04-10T12:56:01;19.30;10.90
51011;DHT22;37038;50.182;8.624;2023-04-10T12:59:05;19.60;10.90
51011;DHT22;37038;50.182;8.624;2023-04-10T13:01:53;19.20;12.30
51011;DHT22;37038;50.182;8.624;2023-04-10T13:04:41;19.30;12.90
51011;DHT22;37038;50.182;8.624;2023-04-10T13:07:29;19.80;10.20
51011;DHT22;37038;50.182;8.624;2023-04-10T13:10:16;20.20;9.90
51011;DHT22;37038;50.182;8.624;2023-04-10T13:13:05;19.50;8.90
51011;DHT22;37038;50.182;8.624;2023-04-10T13:15:58;19.80;12.20
51011;DHT22;37038;50.182;8.624;2023-04-10T13:18:46;19.70;11.50
51011;DHT22;37038;50.182;8.624;2023-04-10T13:21:33;20.30;9.80
51011;DHT22;37038;50.182;8.624;2023-04-10T13:24:21;20.20;10.40
51011;DHT22;37038;50.182;8.624;2023-04-10T13:27:09;20.10;11.40
51011;DHT22;37038;50.182;8.624;2023-04-10T13:29:57;19.80;11.00
51011;DHT22;37038;50.182;8.624;2023-04-10T13:32:44;20.00;12.20
51011;DHT22;37038;50.182;8.624;2023-04-10T13:35:32;20.10;11.40
51011;DHT22;37038;50.182;8.624;2023-04-10T13:38:19;19.80;11.00
51011;DHT22;37038;50.182;8.624;2023-04-10T13:41:07;19.70;11.60
51011;DHT22;37038;50.182;8.624;2023-04-10T13:43:55;19.10;12.30
51011;DHT22;37038;50.182;8.624;2023-04-10T13:46:43;19.40;13.80
51011;DHT22;37038;50.182;8.624;2023-04-10T13:49:30;19.40;13.30
51011;DHT22;37038;50.182;8.624;2023-04-10T13:52:18;19.60;14.40
51011;DHT22;37038;50.182;8.624;2023-04-10T13:55:06;19.50;14.90
51011;DHT22;37038;50.182;8.624;2023-04-10T13:57:53;19.70;17.40
51011;DHT22;37038;50.182;8.624;2023-04-10T14:00:44;19.20;18.40
51011;DHT22;37038;50.182;8.624;2023-04-10T14:03:31;19.40;17.90
51011;DHT22;37038;50.182;8.624;2023-04-10T14:06:19;19.30;16.50
51011;DHT22;37038;50.182;8.624;2023-04-10T14:09:07;19.50;16.40
51011;DHT22;37038;50.182;8.624;2023-04-10T14:11:55;19.40;14.30
51011;DHT22;37038;50.182;8.624;2023-04-10T14:14:43;19.70;15.70
51011;DHT22;37038;50.182;8.624;2023-04-10T14:17:31;20.70;13.90
51011;DHT22;37038;50.182;8.624;2023-04-10T14:20:19;20.00;13.30
51011;DHT22;37038;50.182;8.624;2023-04-10T14:23:07;20.00;14.00
51011;DHT22;37038;50.182;8.624;2023-04-10T14:25:55;20.00;15.10
51011;DHT22;37038;50.182;8.624;2023-04-10T14:28:42;19.80;12.70
51011;DHT22;37038;50.182;8.624;2023-04-10T14:31:30;20.20;12.30
51011;DHT22;37038;50.182;8.624;2023-04-10T14:34:20;19.50;11.30
51011;DHT22;37038;50.182;8.624;2023-04-10T14:37:08;19.90;12.60
51011;DHT22;37038;50.182;8.624;2023-04-10T14:39:56;19.90;12.60
51011;DHT22;37038;50.182;8.624;2023-04-10T14:42:43;19.30;11.80
51011;DHT22;37038;50.182;8.624;2023-04-10T14:45:32;19.70;10.70
51011;DHT22;37038;50.182;8.624;2023-04-10T14:48:19;19.40;11.30
51011;DHT22;37038;50.182;8.624;2023-04-10T14:51:07;19.60;11.60
51011;DHT22;37038;50.182;8.624;2023-04-10T14:53:59;20.00;10.00
51011;DHT22;37038;50.182;8.624;2023-04-10T14:56:47;19.50;10.10
51011;DHT22;37038;50.182;8.624;2023-04-10T14:59:35;19.00;10.30
51011;DHT22;37038;50.182;8.624;2023-04-10T15:02:23;18.80;9.90
51011;DHT22;37038;50.182;8.624;2023-04-10T15:05:10;18.40;9.90
51011;DHT22;37038;50.182;8.624;2023-04-10T15:07:58;18.40;9.70
51011;DHT22;37038;50.182;8.624;2023-04-10T15:10:45;18.70;10.90
51011;DHT22;37038;50.182;8.624;2023-04-10T15:13:36;18.50;9.00
51011;DHT22;37038;50.182;8.624;2023-04-10T15:16:25;18.50;9.90
51011;DHT22;37038;50.182;8.624;2023-04-10T15:19:12;18.40;8.60
51011;DHT22;37038;50.182;8.624;2023-04-10T15:22:00;18.50;9.70
51011;DHT22;37038;50.182;8.624;2023-04-10T15:24:47;18.10;9.10
51011;DHT22;37038;50.182;8.624;2023-04-10T15:27:37;18.30;8.90
51011;DHT22;37038;50.182;8.624;2023-04-10T15:30:25;18.50;8.40
51011;DHT22;37038;50.182;8.624;2023-04-10T15:33:13;18.90;7.90
51011;DHT22;37038;50.182;8.624;2023-04-10T15:36:00;18.50;8.70
51011;DHT22;37038;50.182;8.624;2023-04-10T15:38:48;18.30;8.70
51011;DHT22;37038;50.182;8.624;2023-04-10T15:41:36;18.40;8.30
51011;DHT22;37038;50.182;8.624;2023-04-10T15:44:24;18.10;8.90
51011;DHT22;37038;50.182;8.624;2023-04-10T15:47:12;18.30;9.10
51011;DHT22;37038;50.182;8.624;2023-04-10T15:50:00;18.50;10.20
51011;DHT22;37038;50.182;8.624;2023-04-10T15:52:47;18.80;8.90
51011;DHT22;37038;50.182;8.624;2023-04-10T15:55:40;19.20;7.90
51011;DHT22;37038;50.182;8.624;2023-04-10T15:58:27;19.30;8.90
51011;DHT22;37038;50.182;8.624;2023-04-10T16:01:15;20.20;8.00
51011;DHT22;37038;50.182;8.624;2023-04-10T16:04:03;19.80;8.60
51011;DHT22;37038;50.182;8.624;2023-04-10T16:06:51;19.40;8.20
51011;DHT22;37038;50.182;8.624;2023-04-10T16:09:38;19.10;8.00
51011;DHT22;37038;50.182;8.624;2023-04-10T16:12:25;18.80;9.00
51011;DHT22;37038;50.182;8.624;2023-04-10T16:15:13;18.40;8.70
51011;DHT22;37038;50.182;8.624;2023-04-10T16:18:05;18.40;9.30
51011;DHT22;37038;50.182;8.624;2023-04-10T16:20:53;18.10;9.50
51011;DHT22;37038;50.182;8.624;2023-04-10T16:23:41;18.10;9.70
51011;DHT22;37038;50.182;8.624;2023-04-10T16:26:29;18.00;9.90
51011;DHT22;37038;50.182;8.624;2023-04-10T16:29:17;18.00;9.40
51011;DHT22;37038;50.182;8.624;2023-04-10T16:32:06;18.00;10.10
51011;DHT22;37038;50.182;8.624;2023-04-10T16:34:53;18.00;9.70
51011;DHT22;37038;50.182;8.624;2023-04-10T16:37:41;17.90;9.30
51011;DHT22;37038;50.182;8.624;2023-04-10T16:40:28;17.80;9.20
51011;DHT22;37038;50.182;8.624;2023-04-10T16:43:19;17.80;9.90
51011;DHT22;37038;50.182;8.624;2023-04-10T16:46:07;17.80;10.50
51011;DHT22;37038;50.182;8.624;2023-04-10T16:48:55;17.80;10.40
51011;DHT22;37038;50.182;8.624;2023-04-10T16:51:43;17.80;10.30
51011;DHT22;37038;50.182;8.624;2023-04-10T16:54:31;17.70;10.40
51011;DHT22;37038;50.182;8.624;2023-04-10T16:57:19;17.60;10.50
51011;DHT22;37038;50.182;8.624;2023-04-10T17:00:07;17.70;10.50
51011;DHT22;37038;50.182;8.624;2023-04-10T17:02:57;17.70;10.50
51011;DHT22;37038;50.182;8.624;2023-04-10T17:05:45;17.60;11.00
51011;DHT22;37038;50.182;8.624;2023-04-10T17:08:33;17.60;11.10
51011;DHT22;37038;50.182;8.624;2023-04-10T17:11:20;17.60;11.50
51011;DHT22;37038;50.182;8.624;2023-04-10T17:14:08;17.50;12.20
51011;DHT22;37038;50.182;8.624;2023-04-10T17:16:56;17.40;13.50
51011;DHT22;37038;50.182;8.624;2023-04-10T17:19:44;17.20;14.90
51011;DHT22;37038;50.182;8.624;2023-04-10T17:22:32;17.10;16.40
51011;DHT22;37038;50.182;8.624;2023-04-10T17:25:19;17.00;17.80
51011;DHT22;37038;50.182;8.624;2023-04-10T17:28:07;16.90;17.60
51011;DHT22;37038;50.182;8.624;2023-04-10T17:30:54;16.80;18.20
51011;DHT22;37038;50.182;8.624;2023-04-10T17:33:44;16.70;18.00
51011;DHT22;37038;50.182;8.624;2023-04-10T17:36:32;16.70;18.40
51011;DHT22;37038;50.182;8.624;2023-04-10T17:39:19;16.60;18.50
51011;DHT22;37038;50.182;8.624;2023-04-10T17:42:07;16.60;18.70
51011;DHT22;37038;50.182;8.624;2023-04-10T17:51:52;16.40;19.00
51011;DHT22;37038;50.182;8.624;2023-04-10T17:55:43;16.30;18.90
51011;DHT22;37038;50.182;8.624;2023-04-10T17:59:15;16.30;19.20
51011;DHT22;37038;50.182;8.624;2023-04-10T18:02:41;16.30;19.50
51011;DHT22;37038;50.182;8.624;2023-04-10T18:05:50;16.20;19.40
51011;DHT22;37038;50.182;8.624;2023-04-10T18:09:34;16.20;19.60
51011;DHT22;37038;50.182;8.624;2023-04-10T18:13:32;16.20;19.60
51011;DHT22;37038;50.182;8.624;2023-04-10T18:17:16;16.20;19.70
51011;DHT22;37038;50.182;8.624;2023-04-10T18:28:03;16.00;20.50
51011;DHT22;37038;50.182;8.624;2023-04-10T18:31:47;16.00;20.50
51011;DHT22;37038;50.182;8.624;2023-04-10T18:35:08;15.90;21.10
51011;DHT22;37038;50.182;8.624;2023-04-10T18:38:39;15.90;20.40
51011;DHT22;37038;50.182;8.624;2023-04-10T18:41:29;15.90;20.70
51011;DHT22;37038;50.182;8.624;2023-04-10T18:44:16;15.90;20.80
51011;DHT22;37038;50.182;8.624;2023-04-10T18:47:04;15.90;20.80
51011;DHT22;37038;50.182;8.624;2023-04-10T18:49:52;15.90;21.20
51011;DHT22;37038;50.182;8.624;2023-04-10T18:52:39;15.90;21.30
51011;DHT22;37038;50.182;8.624;2023-04-10T18:55:27;15.90;21.40